sensor_id;sensor_type;location;lat;lon;timestamp;pressure;altitude;pressure_sealevel;temperature;humidity
46846;BME280;33947;46.804;134.252;2023-05-22T00:01:48;99961.09;;;21.48;53.65
46846;BME280;33947;46.804;134.252;2023-05-22T00:04:54;99960.94;;;20.94;53.06
46846;BME280;33947;46.804;134.252;2023-05-22T00:08:02;99966.63;;;19.60;53.89
46846;BME280;33947;46.804;134.252;2023-05-22T00:11:08;99965.19;;;18.54;58.77
46846;BME280;33947;46.804;134.252;2023-05-22T00:14:12;99962.81;;;18.62;55.50
46846;BME280;33947;46.804;134.252;2023-05-22T00:17:16;99966.75;;;16.91;55.18
46846;BME280;33947;46.804;134.252;2023-05-22T00:20:21;99965.28;;;17.44;56.55
46846;BME280;33947;46.804;134.252;2023-05-22T00:23:25;99964.94;;;18.31;53.25
46846;BME280;33947;46.804;134.252;2023-05-22T00:26:31;99980.94;;;19.73;50.72
46846;BME280;33947;46.804;134.252;2023-05-22T00:29:34;99982.25;;;19.92;51.59
46846;BME280;33947;46.804;134.252;2023-05-22T00:32:39;99986.28;;;18.73;53.69
46846;BME280;33947;46.804;134.252;2023-05-22T00:35:43;99987.84;;;17.96;56.08
46846;BME280;33947;46.804;134.252;2023-05-22T00:38:48;99991.84;;;16.61;58.16
46846;BME280;33947;46.804;134.252;2023-05-22T00:41:52;99991.38;;;16.69;58.87
46846;BME280;33947;46.804;134.252;2023-05-22T00:44:56;99997.88;;;16.51;58.80
46846;BME280;33947;46.804;134.252;2023-05-22T00:48:01;99995.94;;;16.08;59.93
46846;BME280;33947;46.804;134.252;2023-05-22T00:51:06;99964.78;;;15.10;60.17
46846;BME280;33947;46.804;134.252;2023-05-22T00:54:11;99973.63;;;14.79;61.10
46846;BME280;33947;46.804;134.252;2023-05-22T00:57:16;99998.09;;;14.53;60.33
46846;BME280;33947;46.804;134.252;2023-05-22T01:00:22;100001.16;;;14.63;60.71
46846;BME280;33947;46.804;134.252;2023-05-22T01:03:26;100006.59;;;14.26;60.55
46846;BME280;33947;46.804;134.252;2023-05-22T01:06:31;99987.78;;;14.81;59.19
46846;BME280;33947;46.804;134.252;2023-05-22T01:09:35;99988.19;;;15.23;59.09
46846;BME280;33947;46.804;134.252;2023-05-22T01:13:27;100013.22;;;15.86;58.99
46846;BME280;33947;46.804;134.252;2023-05-22T01:20:24;100012.53;;;15.82;58.73
46846;BME280;33947;46.804;134.252;2023-05-22T01:27:27;100008.13;;;16.58;57.50
46846;BME280;33947;46.804;134.252;2023-05-22T01:30:49;100010.06;;;19.18;52.49
46846;BME280;33947;46.804;134.252;2023-05-22T01:33:59;99977.50;;;17.20;47.99
46846;BME280;33947;46.804;134.252;2023-05-22T01:37:04;100007.31;;;17.16;53.90
46846;BME280;33947;46.804;134.252;2023-05-22T01:40:09;99972.78;;;16.81;55.67
46846;BME280;33947;46.804;134.252;2023-05-22T01:43:14;100005.00;;;16.95;55.26
46846;BME280;33947;46.804;134.252;2023-05-22T01:46:19;99992.25;;;15.94;56.77
46846;BME280;33947;46.804;134.252;2023-05-22T01:49:24;99981.44;;;16.26;56.71
46846;BME280;33947;46.804;134.252;2023-05-22T01:56:05;100007.78;;;16.03;56.95
46846;BME280;33947;46.804;134.252;2023-05-22T01:59:26;100009.56;;;18.20;51.74
46846;BME280;33947;46.804;134.252;2023-05-22T02:02:35;100005.41;;;18.55;50.02
46846;BME280;33947;46.804;134.252;2023-05-22T02:05:42;100010.81;;;19.20;46.77
46846;BME280;33947;46.804;134.252;2023-05-22T02:08:47;99998.41;;;19.67;46.87
46846;BME280;33947;46.804;134.252;2023-05-22T02:11:51;99997.13;;;17.77;51.01
46846;BME280;33947;46.804;134.252;2023-05-22T02:14:56;100000.75;;;17.49;52.76
46846;BME280;33947;46.804;134.252;2023-05-22T02:18:02;100004.94;;;17.11;53.06
46846;BME280;33947;46.804;134.252;2023-05-22T02:21:06;99996.28;;;17.20;53.11
46846;BME280;33947;46.804;134.252;2023-05-22T02:24:13;100009.59;;;17.22;50.61
46846;BME280;33947;46.804;134.252;2023-05-22T02:27:20;100011.41;;;16.33;51.74
46846;BME280;33947;46.804;134.252;2023-05-22T02:30:25;100000.38;;;16.54;51.37
46846;BME280;33947;46.804;134.252;2023-05-22T02:33:30;99987.34;;;16.62;50.82
46846;BME280;33947;46.804;134.252;2023-05-22T02:36:34;100000.66;;;16.63;51.15
46846;BME280;33947;46.804;134.252;2023-05-22T02:39:39;100013.66;;;17.29;50.62
46846;BME280;33947;46.804;134.252;2023-05-22T02:42:44;100014.44;;;17.59;50.27
46846;BME280;33947;46.804;134.252;2023-05-22T02:45:48;100003.97;;;17.69;49.69
46846;BME280;33947;46.804;134.252;2023-05-22T02:48:52;100021.81;;;17.97;50.22
46846;BME280;33947;46.804;134.252;2023-05-22T02:51:56;100031.06;;;17.78;50.99
46846;BME280;33947;46.804;134.252;2023-05-22T02:55:00;100004.31;;;17.35;51.66
46846;BME280;33947;46.804;134.252;2023-05-22T02:58:06;100016.25;;;17.73;51.34
46846;BME280;33947;46.804;134.252;2023-05-22T03:01:13;99999.63;;;18.08;49.79
46846;BME280;33947;46.804;134.252;2023-05-22T03:04:18;100040.78;;;17.81;50.29
46846;BME280;33947;46.804;134.252;2023-05-22T03:07:23;100011.00;;;17.42;50.78
46846;BME280;33947;46.804;134.252;2023-05-22T03:10:28;99991.22;;;17.16;50.90
46846;BME280;33947;46.804;134.252;2023-05-22T03:13:33;100038.00;;;17.26;50.93
46846;BME280;33947;46.804;134.252;2023-05-22T03:16:37;100008.06;;;16.89;51.25
46846;BME280;33947;46.804;134.252;2023-05-22T03:19:42;100033.72;;;17.65;47.88
46846;BME280;33947;46.804;134.252;2023-05-22T03:22:46;99995.31;;;18.72;47.74
46846;BME280;33947;46.804;134.252;2023-05-22T03:25:52;100013.25;;;18.45;49.09
46846;BME280;33947;46.804;134.252;2023-05-22T03:29:00;100027.44;;;17.23;48.88
46846;BME280;33947;46.804;134.252;2023-05-22T03:32:05;100016.81;;;17.21;51.27
46846;BME280;33947;46.804;134.252;2023-05-22T03:35:09;100036.97;;;16.84;51.46
46846;BME280;33947;46.804;134.252;2023-05-22T03:38:13;100026.16;;;16.71;51.01
46846;BME280;33947;46.804;134.252;2023-05-22T03:41:18;100045.91;;;16.70;51.77
46846;BME280;33947;46.804;134.252;2023-05-22T03:44:23;100039.47;;;16.72;51.91
46846;BME280;33947;46.804;134.252;2023-05-22T03:47:28;100064.41;;;16.89;51.85
46846;BME280;33947;46.804;134.252;2023-05-22T03:50:32;100050.38;;;17.14;51.65
46846;BME280;33947;46.804;134.252;2023-05-22T03:53:36;100038.44;;;16.75;51.38
46846;BME280;33947;46.804;134.252;2023-05-22T03:56:42;100059.44;;;16.97;50.63
46846;BME280;33947;46.804;134.252;2023-05-22T03:59:46;100081.31;;;17.05;47.79
46846;BME280;33947;46.804;134.252;2023-05-22T04:02:50;100029.53;;;17.18;50.44
46846;BME280;33947;46.804;134.252;2023-05-22T04:05:55;100048.22;;;17.34;50.29
46846;BME280;33947;46.804;134.252;2023-05-22T04:09:02;100072.59;;;17.31;50.97
46846;BME280;33947;46.804;134.252;2023-05-22T04:12:07;100045.47;;;17.77;50.28
46846;BME280;33947;46.804;134.252;2023-05-22T04:15:13;100087.31;;;17.67;50.76
46846;BME280;33947;46.804;134.252;2023-05-22T04:18:18;100084.31;;;17.44;50.73
46846;BME280;33947;46.804;134.252;2023-05-22T04:21:22;100036.00;;;16.70;51.00
46846;BME280;33947;46.804;134.252;2023-05-22T04:24:26;100079.69;;;16.72;51.99
46846;BME280;33947;46.804;134.252;2023-05-22T04:27:34;100093.50;;;16.81;52.43
46846;BME280;33947;46.804;134.252;2023-05-22T04:30:37;100057.31;;;16.43;52.49
46846;BME280;33947;46.804;134.252;2023-05-22T04:33:42;100087.75;;;16.72;52.41
46846;BME280;33947;46.804;134.252;2023-05-22T04:36:53;100033.78;;;16.62;52.44
46846;BME280;33947;46.804;134.252;2023-05-22T04:40:00;100098.69;;;17.14;52.99
46846;BME280;33947;46.804;134.252;2023-05-22T04:43:10;100072.31;;;17.35;50.57
46846;BME280;33947;46.804;134.252;2023-05-22T04:46:15;100013.97;;;16.79;51.26
46846;BME280;33947;46.804;134.252;2023-05-22T04:49:19;100053.97;;;17.42;51.05
46846;BME280;33947;46.804;134.252;2023-05-22T04:52:24;100082.66;;;17.42;49.97
46846;BME280;33947;46.804;134.252;2023-05-22T04:55:29;100070.34;;;16.94;50.31
46846;BME280;33947;46.804;134.252;2023-05-22T04:58:36;100085.84;;;17.05;50.86
46846;BME280;33947;46.804;134.252;2023-05-22T05:01:41;100080.94;;;17.41;50.97
46846;BME280;33947;46.804;134.252;2023-05-22T05:04:50;100046.44;;;17.34;51.03
46846;BME280;33947;46.804;134.252;2023-05-22T05:07:55;100084.06;;;17.62;51.07
46846;BME280;33947;46.804;134.252;2023-05-22T05:11:00;100063.03;;;17.83;50.03
46846;BME280;33947;46.804;134.252;2023-05-22T05:14:04;100082.63;;;18.40;49.73
46846;BME280;33947;46.804;134.252;2023-05-22T05:17:08;100095.53;;;18.75;49.03
46846;BME280;33947;46.804;134.252;2023-05-22T05:20:16;100090.31;;;18.19;48.62
46846;BME280;33947;46.804;134.252;2023-05-22T05:23:19;100101.06;;;18.46;49.08
46846;BME280;33947;46.804;134.252;2023-05-22T05:26:24;100090.91;;;18.77;49.03
46846;BME280;33947;46.804;134.252;2023-05-22T05:29:29;100090.03;;;18.77;48.76
46846;BME280;33947;46.804;134.252;2023-05-22T05:32:39;100094.50;;;18.50;47.93
46846;BME280;33947;46.804;134.252;2023-05-22T05:35:54;100089.72;;;18.82;45.41
46846;BME280;33947;46.804;134.252;2023-05-22T05:38:59;100055.78;;;17.71;44.93
46846;BME280;33947;46.804;134.252;2023-05-22T05:42:07;100068.19;;;17.86;47.99
46846;BME280;33947;46.804;134.252;2023-05-22T05:45:14;100091.56;;;18.13;48.65
46846;BME280;33947;46.804;134.252;2023-05-22T05:48:18;100035.41;;;17.81;48.39
46846;BME280;33947;46.804;134.252;2023-05-22T05:51:23;100066.84;;;18.08;48.75
46846;BME280;33947;46.804;134.252;2023-05-22T05:54:28;100078.28;;;18.25;48.65
46846;BME280;33947;46.804;134.252;2023-05-22T05:57:37;100089.44;;;18.18;49.01
46846;BME280;33947;46.804;134.252;2023-05-22T06:00:43;100083.03;;;17.64;49.53
46846;BME280;33947;46.804;134.252;2023-05-22T06:03:48;100074.53;;;17.85;48.41
46846;BME280;33947;46.804;134.252;2023-05-22T06:07:00;100083.72;;;17.54;49.04
46846;BME280;33947;46.804;134.252;2023-05-22T06:10:19;100095.69;;;17.48;49.91
46846;BME280;33947;46.804;134.252;2023-05-22T06:13:32;100024.38;;;17.15;49.52
46846;BME280;33947;46.804;134.252;2023-05-22T06:16:56;100071.53;;;17.62;49.19
46846;BME280;33947;46.804;134.252;2023-05-22T06:20:01;100068.72;;;17.64;49.26
46846;BME280;33947;46.804;134.252;2023-05-22T06:23:05;100095.22;;;18.12;49.42
46846;BME280;33947;46.804;134.252;2023-05-22T06:26:10;100068.88;;;17.90;48.59
46846;BME280;33947;46.804;134.252;2023-05-22T06:29:16;100086.09;;;18.00;48.65
46846;BME280;33947;46.804;134.252;2023-05-22T06:32:21;100092.00;;;17.78;48.07
46846;BME280;33947;46.804;134.252;2023-05-22T06:35:27;100087.03;;;17.72;48.54
46846;BME280;33947;46.804;134.252;2023-05-22T06:38:32;100095.09;;;17.57;47.18
46846;BME280;33947;46.804;134.252;2023-05-22T06:41:36;100083.22;;;17.47;49.70
46846;BME280;33947;46.804;134.252;2023-05-22T06:44:43;100108.41;;;17.88;48.60
46846;BME280;33947;46.804;134.252;2023-05-22T06:47:52;100070.72;;;17.60;48.18
46846;BME280;33947;46.804;134.252;2023-05-22T06:50:57;100037.66;;;17.60;48.47
46846;BME280;33947;46.804;134.252;2023-05-22T06:54:01;100091.16;;;18.19;48.31
46846;BME280;33947;46.804;134.252;2023-05-22T06:57:10;100093.13;;;17.88;47.61
46846;BME280;33947;46.804;134.252;2023-05-22T07:00:15;100073.47;;;18.02;48.00
46846;BME280;33947;46.804;134.252;2023-05-22T07:03:37;100045.16;;;17.40;46.77
46846;BME280;33947;46.804;134.252;2023-05-22T07:06:59;100072.28;;;17.21;47.05
46846;BME280;33947;46.804;134.252;2023-05-22T07:10:04;100099.34;;;17.32;48.25
46846;BME280;33947;46.804;134.252;2023-05-22T07:13:08;100060.84;;;16.88;47.11
46846;BME280;33947;46.804;134.252;2023-05-22T07:16:13;100091.19;;;17.19;46.63
46846;BME280;33947;46.804;134.252;2023-05-22T07:19:17;100095.47;;;16.93;45.31
46846;BME280;33947;46.804;134.252;2023-05-22T07:22:22;100076.81;;;17.20;46.63
46846;BME280;33947;46.804;134.252;2023-05-22T07:25:26;100044.22;;;17.12;46.41
46846;BME280;33947;46.804;134.252;2023-05-22T07:28:31;100097.41;;;17.49;46.78
46846;BME280;33947;46.804;134.252;2023-05-22T07:31:46;100052.75;;;17.33;46.68
46846;BME280;33947;46.804;134.252;2023-05-22T07:34:51;100090.69;;;17.56;46.49
46846;BME280;33947;46.804;134.252;2023-05-22T07:37:56;100076.53;;;17.11;43.58
46846;BME280;33947;46.804;134.252;2023-05-22T07:41:00;100047.16;;;16.93;46.25
46846;BME280;33947;46.804;134.252;2023-05-22T07:44:08;100061.00;;;17.30;46.59
46846;BME280;33947;46.804;134.252;2023-05-22T07:47:12;100047.38;;;17.33;46.29
46846;BME280;33947;46.804;134.252;2023-05-22T07:50:17;100047.59;;;17.30;45.85
46846;BME280;33947;46.804;134.252;2023-05-22T07:53:22;100077.22;;;17.43;45.66
46846;BME280;33947;46.804;134.252;2023-05-22T07:56:30;100047.47;;;17.46;46.61
46846;BME280;33947;46.804;134.252;2023-05-22T07:59:35;99985.47;;;16.93;46.88
46846;BME280;33947;46.804;134.252;2023-05-22T08:02:40;100076.03;;;17.62;46.29
46846;BME280;33947;46.804;134.252;2023-05-22T08:05:44;100057.06;;;17.50;46.84
46846;BME280;33947;46.804;134.252;2023-05-22T08:08:49;100050.25;;;17.45;45.62
46846;BME280;33947;46.804;134.252;2023-05-22T08:11:55;100070.47;;;17.36;45.43
46846;BME280;33947;46.804;134.252;2023-05-22T08:14:59;100057.16;;;17.34;45.55
46846;BME280;33947;46.804;134.252;2023-05-22T08:18:06;100051.50;;;17.25;46.07
46846;BME280;33947;46.804;134.252;2023-05-22T08:21:10;100057.75;;;17.25;46.10
46846;BME280;33947;46.804;134.252;2023-05-22T08:24:14;100028.69;;;17.17;46.44
46846;BME280;33947;46.804;134.252;2023-05-22T08:27:18;100055.25;;;17.36;46.89
46846;BME280;33947;46.804;134.252;2023-05-22T08:30:23;100083.03;;;17.50;46.54
46846;BME280;33947;46.804;134.252;2023-05-22T08:33:27;100072.59;;;17.45;46.63
46846;BME280;33947;46.804;134.252;2023-05-22T08:36:31;100069.81;;;17.32;46.98
46846;BME280;33947;46.804;134.252;2023-05-22T08:39:36;100068.56;;;17.38;46.85
46846;BME280;33947;46.804;134.252;2023-05-22T08:42:41;100061.56;;;17.35;47.61
46846;BME280;33947;46.804;134.252;2023-05-22T08:45:51;100068.97;;;17.46;47.21
46846;BME280;33947;46.804;134.252;2023-05-22T08:48:58;100029.47;;;17.05;47.81
46846;BME280;33947;46.804;134.252;2023-05-22T08:52:22;100042.09;;;17.03;47.09
46846;BME280;33947;46.804;134.252;2023-05-22T08:55:29;100073.75;;;17.27;47.51
46846;BME280;33947;46.804;134.252;2023-05-22T08:58:35;100061.78;;;17.32;47.49
46846;BME280;33947;46.804;134.252;2023-05-22T09:01:40;100041.34;;;17.15;47.37
46846;BME280;33947;46.804;134.252;2023-05-22T09:04:44;100064.72;;;17.28;47.02
46846;BME280;33947;46.804;134.252;2023-05-22T09:07:49;100050.25;;;17.01;46.89
46846;BME280;33947;46.804;134.252;2023-05-22T09:10:54;100033.56;;;16.96;47.77
46846;BME280;33947;46.804;134.252;2023-05-22T09:14:08;100068.72;;;16.91;49.31
46846;BME280;33947;46.804;134.252;2023-05-22T09:17:15;100064.03;;;16.95;47.94
46846;BME280;33947;46.804;134.252;2023-05-22T09:20:20;100047.94;;;16.95;48.71
46846;BME280;33947;46.804;134.252;2023-05-22T09:23:26;100055.75;;;16.69;49.79
46846;BME280;33947;46.804;134.252;2023-05-22T09:26:31;100057.16;;;16.60;49.55
46846;BME280;33947;46.804;134.252;2023-05-22T09:29:55;100004.00;;;16.22;49.50
46846;BME280;33947;46.804;134.252;2023-05-22T09:33:07;100055.00;;;16.37;50.25
46846;BME280;33947;46.804;134.252;2023-05-22T09:36:14;100072.84;;;16.52;50.08
46846;BME280;33947;46.804;134.252;2023-05-22T09:39:19;100070.38;;;16.33;51.16
46846;BME280;33947;46.804;134.252;2023-05-22T09:42:26;100082.25;;;16.29;51.42
46846;BME280;33947;46.804;134.252;2023-05-22T09:45:33;100071.22;;;16.03;52.34
46846;BME280;33947;46.804;134.252;2023-05-22T09:48:38;100088.69;;;16.10;52.33
46846;BME280;33947;46.804;134.252;2023-05-22T09:51:46;100109.84;;;15.99;53.07
46846;BME280;33947;46.804;134.252;2023-05-22T09:54:54;100111.16;;;15.91;53.62
46846;BME280;33947;46.804;134.252;2023-05-22T09:58:02;100111.28;;;15.72;54.07
46846;BME280;33947;46.804;134.252;2023-05-22T10:01:08;100105.56;;;15.62;54.77
46846;BME280;33947;46.804;134.252;2023-05-22T10:04:17;100102.78;;;15.48;55.51
46846;BME280;33947;46.804;134.252;2023-05-22T10:07:21;100121.38;;;15.17;57.59
46846;BME280;33947;46.804;134.252;2023-05-22T10:10:29;100123.50;;;15.11;56.25
46846;BME280;33947;46.804;134.252;2023-05-22T10:13:35;100117.06;;;14.97;57.67
46846;BME280;33947;46.804;134.252;2023-05-22T10:16:40;100133.41;;;14.91;58.57
46846;BME280;33947;46.804;134.252;2023-05-22T10:19:48;100134.00;;;14.80;59.52
46846;BME280;33947;46.804;134.252;2023-05-22T10:22:54;100124.72;;;14.51;60.40
46846;BME280;33947;46.804;134.252;2023-05-22T10:25:58;100130.69;;;14.38;61.36
46846;BME280;33947;46.804;134.252;2023-05-22T10:29:11;100116.09;;;14.09;62.45
46846;BME280;33947;46.804;134.252;2023-05-22T10:32:26;100136.66;;;14.07;62.96
46846;BME280;33947;46.804;134.252;2023-05-22T10:39:29;100138.41;;;13.69;65.13
46846;BME280;33947;46.804;134.252;2023-05-22T10:42:37;100129.97;;;13.39;64.87
46846;BME280;33947;46.804;134.252;2023-05-22T10:45:43;100135.34;;;13.18;65.71
46846;BME280;33947;46.804;134.252;2023-05-22T10:48:51;100132.91;;;13.32;65.17
46846;BME280;33947;46.804;134.252;2023-05-22T10:51:55;100137.25;;;13.35;64.17
46846;BME280;33947;46.804;134.252;2023-05-22T10:55:00;100153.91;;;13.40;63.94
46846;BME280;33947;46.804;134.252;2023-05-22T10:58:30;100120.38;;;13.35;63.51
46846;BME280;33947;46.804;134.252;2023-05-22T11:01:34;100155.19;;;12.90;67.60
46846;BME280;33947;46.804;134.252;2023-05-22T11:04:48;100135.03;;;12.62;66.21
46846;BME280;33947;46.804;134.252;2023-05-22T11:11:32;100161.78;;;12.61;66.28
46846;BME280;33947;46.804;134.252;2023-05-22T11:14:36;100166.84;;;12.44;67.23
46846;BME280;33947;46.804;134.252;2023-05-22T11:17:46;100178.06;;;12.30;67.42
46846;BME280;33947;46.804;134.252;2023-05-22T11:20:57;100158.44;;;12.33;66.70
46846;BME280;33947;46.804;134.252;2023-05-22T11:24:06;100182.41;;;12.33;66.77
46846;BME280;33947;46.804;134.252;2023-05-22T11:27:12;100181.16;;;11.96;68.49
46846;BME280;33947;46.804;134.252;2023-05-22T11:30:16;100168.56;;;11.77;68.74
46846;BME280;33947;46.804;134.252;2023-05-22T11:33:22;100192.91;;;11.66;69.47
46846;BME280;33947;46.804;134.252;2023-05-22T11:36:26;100194.19;;;11.31;73.04
46846;BME280;33947;46.804;134.252;2023-05-22T11:39:31;100193.19;;;11.33;70.77
46846;BME280;33947;46.804;134.252;2023-05-22T11:42:36;100170.03;;;11.37;69.81
46846;BME280;33947;46.804;134.252;2023-05-22T11:45:41;100193.38;;;11.28;70.51
46846;BME280;33947;46.804;134.252;2023-05-22T11:48:46;100185.03;;;11.39;68.94
46846;BME280;33947;46.804;134.252;2023-05-22T11:51:50;100211.41;;;11.20;71.72
46846;BME280;33947;46.804;134.252;2023-05-22T11:54:56;100204.53;;;11.13;70.10
46846;BME280;33947;46.804;134.252;2023-05-22T11:58:03;100193.19;;;11.08;70.02
46846;BME280;33947;46.804;134.252;2023-05-22T12:01:07;100172.91;;;10.80;71.08
46846;BME280;33947;46.804;134.252;2023-05-22T12:04:11;100182.44;;;10.85;71.07
46846;BME280;33947;46.804;134.252;2023-05-22T12:07:15;100207.88;;;10.93;70.97
46846;BME280;33947;46.804;134.252;2023-05-22T12:10:19;100212.13;;;10.71;72.15
46846;BME280;33947;46.804;134.252;2023-05-22T12:13:27;100202.38;;;10.72;72.32
46846;BME280;33947;46.804;134.252;2023-05-22T12:16:35;100185.75;;;10.65;71.53
46846;BME280;33947;46.804;134.252;2023-05-22T12:19:40;100207.59;;;10.75;72.13
46846;BME280;33947;46.804;134.252;2023-05-22T12:22:44;100201.44;;;10.46;72.21
46846;BME280;33947;46.804;134.252;2023-05-22T12:25:59;100196.94;;;10.48;73.00
46846;BME280;33947;46.804;134.252;2023-05-22T12:29:03;100175.41;;;9.99;73.45
46846;BME280;33947;46.804;134.252;2023-05-22T12:32:09;100199.78;;;10.12;74.11
46846;BME280;33947;46.804;134.252;2023-05-22T12:35:17;100203.44;;;10.09;74.11
46846;BME280;33947;46.804;134.252;2023-05-22T12:38:21;100220.91;;;10.17;73.90
46846;BME280;33947;46.804;134.252;2023-05-22T12:41:25;100217.75;;;10.04;74.29
46846;BME280;33947;46.804;134.252;2023-05-22T12:44:29;100202.91;;;9.66;75.30
46846;BME280;33947;46.804;134.252;2023-05-22T12:47:34;100210.34;;;9.53;75.25
46846;BME280;33947;46.804;134.252;2023-05-22T12:50:39;100201.47;;;9.54;75.46
46846;BME280;33947;46.804;134.252;2023-05-22T12:53:43;100203.66;;;9.38;75.70
46846;BME280;33947;46.804;134.252;2023-05-22T12:56:48;100208.22;;;9.33;75.67
46846;BME280;33947;46.804;134.252;2023-05-22T12:59:52;100178.38;;;9.26;75.42
46846;BME280;33947;46.804;134.252;2023-05-22T13:02:57;100204.72;;;9.33;75.53
46846;BME280;33947;46.804;134.252;2023-05-22T13:06:03;100193.78;;;9.12;75.98
46846;BME280;33947;46.804;134.252;2023-05-22T13:09:07;100202.00;;;9.01;76.92
46846;BME280;33947;46.804;134.252;2023-05-22T13:12:11;100196.16;;;8.88;77.09
46846;BME280;33947;46.804;134.252;2023-05-22T13:15:16;100235.25;;;9.15;76.86
46846;BME280;33947;46.804;134.252;2023-05-22T13:18:20;100172.25;;;8.91;75.36
46846;BME280;33947;46.804;134.252;2023-05-22T13:21:25;100230.69;;;9.20;75.21
46846;BME280;33947;46.804;134.252;2023-05-22T13:24:29;100240.41;;;9.19;75.10
46846;BME280;33947;46.804;134.252;2023-05-22T13:27:35;100233.06;;;8.96;75.94
46846;BME280;33947;46.804;134.252;2023-05-22T13:30:39;100243.97;;;8.83;76.99
46846;BME280;33947;46.804;134.252;2023-05-22T13:33:43;100214.59;;;8.57;77.60
46846;BME280;33947;46.804;134.252;2023-05-22T13:36:47;100232.53;;;8.81;76.79
46846;BME280;33947;46.804;134.252;2023-05-22T13:39:52;100248.91;;;8.61;76.92
46846;BME280;33947;46.804;134.252;2023-05-22T13:42:56;100261.69;;;8.80;76.42
46846;BME280;33947;46.804;134.252;2023-05-22T13:46:00;100204.44;;;8.36;76.09
46846;BME280;33947;46.804;134.252;2023-05-22T13:49:04;100251.34;;;8.71;75.83
46846;BME280;33947;46.804;134.252;2023-05-22T13:52:08;100257.47;;;8.73;76.36
46846;BME280;33947;46.804;134.252;2023-05-22T13:55:12;100255.06;;;8.62;75.93
46846;BME280;33947;46.804;134.252;2023-05-22T13:58:17;100250.72;;;8.59;76.01
46846;BME280;33947;46.804;134.252;2023-05-22T14:01:22;100260.50;;;8.56;76.33
46846;BME280;33947;46.804;134.252;2023-05-22T14:04:26;100265.34;;;8.35;77.45
46846;BME280;33947;46.804;134.252;2023-05-22T14:07:31;100254.88;;;8.29;77.31
46846;BME280;33947;46.804;134.252;2023-05-22T14:10:35;100268.56;;;8.48;76.80
46846;BME280;33947;46.804;134.252;2023-05-22T14:13:41;100258.81;;;8.10;80.08
46846;BME280;33947;46.804;134.252;2023-05-22T14:16:45;100251.59;;;8.19;78.72
46846;BME280;33947;46.804;134.252;2023-05-22T14:19:49;100151.41;;;7.61;77.40
46846;BME280;33947;46.804;134.252;2023-05-22T14:22:53;100244.50;;;8.21;76.81
46846;BME280;33947;46.804;134.252;2023-05-22T14:26:00;100241.69;;;8.27;76.38
46846;BME280;33947;46.804;134.252;2023-05-22T14:29:04;100253.34;;;8.18;77.17
46846;BME280;33947;46.804;134.252;2023-05-22T14:32:08;100234.75;;;7.80;78.14
46846;BME280;33947;46.804;134.252;2023-05-22T14:35:12;100249.66;;;7.83;78.68
46846;BME280;33947;46.804;134.252;2023-05-22T14:38:19;100246.00;;;7.90;78.32
46846;BME280;33947;46.804;134.252;2023-05-22T14:41:23;100260.22;;;7.85;78.37
46846;BME280;33947;46.804;134.252;2023-05-22T14:44:27;100260.69;;;7.61;79.44
46846;BME280;33947;46.804;134.252;2023-05-22T14:47:35;100264.25;;;7.60;79.48
46846;BME280;33947;46.804;134.252;2023-05-22T14:50:39;100257.94;;;7.67;79.66
46846;BME280;33947;46.804;134.252;2023-05-22T14:53:43;100260.16;;;7.88;78.68
46846;BME280;33947;46.804;134.252;2023-05-22T14:56:47;100265.41;;;7.91;78.27
46846;BME280;33947;46.804;134.252;2023-05-22T14:59:51;100254.31;;;7.70;78.94
46846;BME280;33947;46.804;134.252;2023-05-22T15:02:55;100259.47;;;7.78;78.82
46846;BME280;33947;46.804;134.252;2023-05-22T15:05:59;100265.97;;;7.61;79.13
46846;BME280;33947;46.804;134.252;2023-05-22T15:09:03;100258.44;;;7.41;79.94
46846;BME280;33947;46.804;134.252;2023-05-22T15:12:08;100258.75;;;7.22;80.70
46846;BME280;33947;46.804;134.252;2023-05-22T15:15:12;100264.00;;;7.24;81.06
46846;BME280;33947;46.804;134.252;2023-05-22T15:18:16;100268.03;;;7.45;80.49
46846;BME280;33947;46.804;134.252;2023-05-22T15:21:24;100220.59;;;7.39;78.83
46846;BME280;33947;46.804;134.252;2023-05-22T15:24:28;100251.91;;;7.59;78.27
46846;BME280;33947;46.804;134.252;2023-05-22T15:27:33;100251.16;;;7.52;78.33
46846;BME280;33947;46.804;134.252;2023-05-22T15:30:38;100234.31;;;7.58;77.15
46846;BME280;33947;46.804;134.252;2023-05-22T15:33:44;100230.91;;;7.51;77.37
46846;BME280;33947;46.804;134.252;2023-05-22T15:36:49;100215.50;;;7.28;77.72
46846;BME280;33947;46.804;134.252;2023-05-22T15:39:54;100239.63;;;7.08;79.42
46846;BME280;33947;46.804;134.252;2023-05-22T15:42:58;100233.75;;;6.92;80.85
46846;BME280;33947;46.804;134.252;2023-05-22T15:46:06;100169.09;;;6.64;81.08
46846;BME280;33947;46.804;134.252;2023-05-22T15:49:11;100221.31;;;6.97;80.38
46846;BME280;33947;46.804;134.252;2023-05-22T15:52:15;100227.78;;;6.79;81.48
46846;BME280;33947;46.804;134.252;2023-05-22T15:55:19;100208.75;;;6.60;81.25
46846;BME280;33947;46.804;134.252;2023-05-22T15:58:23;100225.22;;;6.74;82.05
46846;BME280;33947;46.804;134.252;2023-05-22T16:01:27;100185.00;;;6.58;81.44
46846;BME280;33947;46.804;134.252;2023-05-22T16:04:32;100213.00;;;6.67;81.20
46846;BME280;33947;46.804;134.252;2023-05-22T16:07:36;100228.84;;;6.69;81.66
46846;BME280;33947;46.804;134.252;2023-05-22T16:10:41;100220.97;;;6.65;81.87